Time;durP1;ratioP1;P1;durP2;ratioP2;P2;SDS_P1;SDS_P2;PMS_P1;PMS_P2;Temp;Humidity;BMP_temperature;BMP_pressure;BME280_temperature;BME280_humidity;BME280_pressure;Samples;Min_cycle;Max_cycle;Signal;HPM_P1;HPM_P2
2023/11/07 00:01:05;;;;;;;5.07;2.67;;;;;;;5.00;100.00;100044.41;5077308;28;20519;-72
2023/11/07 00:03:49;;;;;;;5.72;2.60;;;;;;;4.99;100.00;100047.44;5079874;28;20058;-72
2023/11/07 00:06:33;;;;;;;6.15;2.40;;;;;;;4.98;100.00;100051.25;5082603;28;20047;-71
2023/11/07 00:09:17;;;;;;;4.97;2.42;;;;;;;4.96;100.00;100051.53;5061717;28;20132;-71
2023/11/07 00:12:03;;;;;;;4.72;2.47;;;;;;;4.95;100.00;100047.13;5077088;28;20074;-71
2023/11/07 00:14:47;;;;;;;5.28;2.42;;;;;;;4.93;100.00;100052.06;5076778;28;20051;-71
2023/11/07 00:17:31;;;;;;;6.43;2.63;;;;;;;4.89;100.00;100045.44;5065837;28;20078;-71
2023/11/07 00:20:15;;;;;;;7.88;2.80;;;;;;;4.87;100.00;100055.88;5091137;28;20515;-71
2023/11/07 00:22:59;;;;;;;4.80;2.90;;;;;;;4.90;100.00;100058.09;5077792;28;20093;-71
2023/11/07 00:25:43;;;;;;;3.63;2.30;;;;;;;4.84;100.00;100057.25;5077735;28;20079;-71
2023/11/07 00:28:28;;;;;;;3.95;2.30;;;;;;;4.79;100.00;100046.25;5082244;28;20388;-71
2023/11/07 00:31:13;;;;;;;6.88;2.35;;;;;;;4.77;100.00;100059.44;5064478;28;20035;-71
2023/11/07 00:33:57;;;;;;;5.50;2.13;;;;;;;4.76;100.00;100062.44;5085056;28;20035;-71
2023/11/07 00:36:41;;;;;;;5.45;2.83;;;;;;;4.77;100.00;100066.84;5085009;28;20109;-71
2023/11/07 00:39:25;;;;;;;4.38;2.28;;;;;;;4.76;100.00;100057.75;5079824;28;20035;-72
2023/11/07 00:42:09;;;;;;;8.38;2.65;;;;;;;4.69;100.00;100063.50;5077169;28;20086;-71
2023/11/07 00:44:53;;;;;;;5.97;2.60;;;;;;;4.70;100.00;100065.16;5097045;28;20518;-71
2023/11/07 00:47:37;;;;;;;7.80;2.50;;;;;;;4.69;100.00;100059.94;5066416;28;20061;-71
2023/11/07 00:50:21;;;;;;;4.15;2.53;;;;;;;4.66;100.00;100061.28;5076235;28;20043;-71
2023/11/07 00:53:05;;;;;;;5.95;2.20;;;;;;;4.62;100.00;100060.13;5084682;28;20054;-71
2023/11/07 00:55:49;;;;;;;6.30;2.72;;;;;;;4.59;100.00;100068.94;5065093;28;20545;-71
2023/11/07 00:58:34;;;;;;;4.60;2.17;;;;;;;4.58;100.00;100060.97;5100663;28;20031;-71
2023/11/07 01:01:18;;;;;;;5.93;2.45;;;;;;;4.56;100.00;100065.88;5089716;28;20508;-71
2023/11/07 01:04:03;;;;;;;10.80;2.85;;;;;;;4.54;100.00;100068.91;5085142;28;20396;-71
2023/11/07 01:06:47;;;;;;;4.57;2.20;;;;;;;4.50;100.00;100078.78;5080955;28;20047;-71
2023/11/07 01:09:31;;;;;;;8.48;2.58;;;;;;;4.51;100.00;100074.91;5065956;28;20569;-71
2023/11/07 01:12:15;;;;;;;6.47;2.45;;;;;;;4.46;100.00;100066.66;5094124;28;20071;-72
2023/11/07 01:14:59;;;;;;;4.78;1.92;;;;;;;4.43;100.00;100068.00;5081406;28;20112;-72
2023/11/07 01:17:43;;;;;;;5.90;2.50;;;;;;;4.39;100.00;100071.53;5066057;28;20044;-71
2023/11/07 01:20:27;;;;;;;6.28;2.67;;;;;;;4.37;100.00;100085.53;5079901;28;20047;-71
2023/11/07 01:23:14;;;;;;;4.57;2.08;;;;;;;4.35;100.00;100076.75;5065446;28;20503;-71
2023/11/07 01:26:02;;;;;;;6.03;2.60;;;;;;;4.34;100.00;100068.75;5065443;28;20040;-71
2023/11/07 01:28:47;;;;;;;5.78;2.10;;;;;;;4.31;100.00;100080.28;5100381;28;20098;-71
2023/11/07 01:31:31;;;;;;;5.18;2.15;;;;;;;4.30;100.00;100076.72;5086363;28;20090;-71
2023/11/07 01:34:15;;;;;;;5.15;2.30;;;;;;;4.31;100.00;100072.03;5066147;28;20442;-71
2023/11/07 01:36:59;;;;;;;5.57;2.03;;;;;;;4.30;100.00;100073.13;5079718;28;20381;-71
2023/11/07 01:39:43;;;;;;;7.35;2.58;;;;;;;4.26;100.00;100075.56;5092967;28;20079;-71
2023/11/07 01:42:27;;;;;;;7.35;2.70;;;;;;;4.24;100.00;100080.53;5065218;28;20040;-71
2023/11/07 01:45:11;;;;;;;3.17;2.00;;;;;;;4.26;100.00;100083.81;5073407;28;20039;-71
2023/11/07 01:47:56;;;;;;;6.20;2.40;;;;;;;4.24;100.00;100091.50;5092855;28;20037;-71
2023/11/07 01:50:40;;;;;;;4.63;2.40;;;;;;;4.21;100.00;100090.13;5080917;28;20039;-71
2023/11/07 01:53:24;;;;;;;8.07;2.50;;;;;;;4.21;100.00;100095.63;5090976;28;20097;-71
2023/11/07 01:56:08;;;;;;;4.03;2.00;;;;;;;4.22;100.00;100099.19;5083776;28;20106;-71
2023/11/07 01:58:52;;;;;;;5.72;2.25;;;;;;;4.16;100.00;100092.81;5084801;28;20040;-71
2023/11/07 02:01:37;;;;;;;6.75;2.15;;;;;;;4.15;100.00;100104.91;5078901;28;20043;-71
2023/11/07 02:04:21;;;;;;;5.80;2.08;;;;;;;4.11;100.00;100101.00;5051952;28;20488;-71
2023/11/07 02:07:07;;;;;;;4.82;2.30;;;;;;;4.17;100.00;100101.88;5067414;28;20092;-71
2023/11/07 02:09:51;;;;;;;6.10;2.45;;;;;;;4.14;100.00;100107.91;5065228;28;20114;-71
2023/11/07 02:12:35;;;;;;;6.00;2.28;;;;;;;4.08;100.00;100109.78;5066745;28;20067;-71
2023/11/07 02:15:26;;;;;;;5.75;2.15;;;;;;;4.07;100.00;100104.53;5080585;28;20101;-71
2023/11/07 02:18:11;;;;;;;6.30;2.13;;;;;;;4.05;100.00;100096.56;5078817;28;20508;-71
2023/11/07 02:20:55;;;;;;;6.63;2.15;;;;;;;4.05;100.00;100104.81;5078674;28;20058;-71
2023/11/07 02:23:39;;;;;;;6.60;2.10;;;;;;;4.05;100.00;100096.56;5064767;28;20145;-71
2023/11/07 02:26:23;;;;;;;3.90;1.70;;;;;;;4.07;100.00;100110.03;5079172;28;20062;-71
2023/11/07 02:29:07;;;;;;;7.22;2.15;;;;;;;4.00;100.00;100108.31;5079497;28;20042;-71
2023/11/07 02:31:52;;;;;;;4.30;1.92;;;;;;;3.98;100.00;100110.53;5064498;28;20055;-71
2023/11/07 02:34:36;;;;;;;6.88;2.40;;;;;;;3.97;100.00;100106.09;5078902;28;20505;-71
2023/11/07 02:37:21;;;;;;;5.75;2.20;;;;;;;3.94;100.00;100109.38;5064534;28;20113;-71
2023/11/07 02:40:06;;;;;;;5.10;2.03;;;;;;;3.95;100.00;100118.44;5064575;28;20039;-71
2023/11/07 02:42:50;;;;;;;6.05;1.80;;;;;;;3.94;100.00;100120.38;5082814;28;20067;-71
2023/11/07 02:45:35;;;;;;;4.68;2.08;;;;;;;3.90;100.00;100110.16;5098720;28;20116;-71
2023/11/07 02:48:20;;;;;;;5.25;2.10;;;;;;;3.88;100.00;100115.09;5064205;28;20102;-71
2023/11/07 02:51:04;;;;;;;4.10;2.15;;;;;;;3.86;100.00;100114.50;5082466;28;20097;-71
2023/11/07 02:53:50;;;;;;;5.47;2.03;;;;;;;3.86;100.00;100109.84;5078477;28;20116;-71
2023/11/07 02:56:34;;;;;;;7.38;2.17;;;;;;;3.86;100.00;100114.50;5063858;28;20059;-71
2023/11/07 02:59:18;;;;;;;4.40;1.85;;;;;;;3.86;100.00;100117.25;5091829;28;20578;-71
2023/11/07 03:02:03;;;;;;;8.38;2.05;;;;;;;3.85;100.00;100108.19;5063730;28;20504;-71
2023/11/07 03:04:48;;;;;;;8.95;2.30;;;;;;;3.83;100.00;100115.03;5071197;28;20451;-71
2023/11/07 03:07:35;;;;;;;4.15;1.80;;;;;;;3.84;100.00;100124.91;5091754;28;20039;-71
2023/11/07 03:10:18;;;;;;;4.45;2.00;;;;;;;3.83;100.00;100117.78;5063788;28;20555;-71
2023/11/07 03:13:03;;;;;;;4.85;1.90;;;;;;;3.79;100.00;100121.06;5063194;28;20101;-71
2023/11/07 03:15:47;;;;;;;6.22;2.05;;;;;;;3.79;100.00;100115.56;5063558;28;20090;-71
2023/11/07 03:18:31;;;;;;;5.03;2.20;;;;;;;3.74;100.00;100121.00;5078572;28;20146;-71
2023/11/07 03:21:15;;;;;;;5.15;1.90;;;;;;;3.74;100.00;100117.41;5078304;28;20159;-71
2023/11/07 03:24:00;;;;;;;5.57;2.17;;;;;;;3.70;100.00;100125.31;5087570;28;20063;-71
2023/11/07 03:26:45;;;;;;;3.60;1.85;;;;;;;3.70;100.00;100124.50;5065206;28;20499;-71
2023/11/07 03:29:29;;;;;;;7.10;2.65;;;;;;;3.66;100.00;100124.19;5063428;28;20043;-71
2023/11/07 03:32:13;;;;;;;5.25;1.60;;;;;;;3.68;100.00;100132.19;5077533;28;20056;-71
2023/11/07 03:34:58;;;;;;;5.35;1.83;;;;;;;3.70;100.00;100130.00;5067804;28;20067;-71
2023/11/07 03:37:42;;;;;;;6.10;2.13;;;;;;;3.64;100.00;100126.34;5079500;28;20435;-71
2023/11/07 03:40:27;;;;;;;6.68;2.00;;;;;;;3.65;100.00;100135.41;5063227;28;20055;-71
2023/11/07 03:43:11;;;;;;;5.90;1.90;;;;;;;3.61;100.00;100135.13;5082441;28;20084;-71
2023/11/07 03:45:55;;;;;;;5.00;2.03;;;;;;;3.62;100.00;100141.44;5078668;28;20042;-71
2023/11/07 03:48:39;;;;;;;5.63;1.90;;;;;;;3.60;100.00;100144.44;5049162;28;20094;-71
2023/11/07 03:51:23;;;;;;;5.60;2.00;;;;;;;3.58;100.00;100144.69;5068871;28;20108;-71
2023/11/07 03:54:07;;;;;;;5.43;2.00;;;;;;;3.54;100.00;100150.97;5078928;28;20067;-71
2023/11/07 03:56:51;;;;;;;4.93;2.35;;;;;;;3.56;100.00;100140.53;5086124;28;20054;-71
2023/11/07 03:59:36;;;;;;;6.28;1.90;;;;;;;3.51;100.00;100145.97;5050995;28;20047;-71
2023/11/07 04:02:19;;;;;;;8.68;2.38;;;;;;;3.51;100.00;100151.47;5062864;28;20094;-71
2023/11/07 04:05:04;;;;;;;6.70;1.80;;;;;;;3.52;100.00;100155.88;5068417;28;20093;-71
2023/11/07 04:07:49;;;;;;;5.80;1.75;;;;;;;3.46;100.00;100152.25;5086437;28;20035;-71
2023/11/07 04:10:34;;;;;;;5.53;1.80;;;;;;;3.48;100.00;100152.84;5078292;28;20094;-71
2023/11/07 04:13:19;;;;;;;5.90;1.83;;;;;;;3.43;100.00;100143.72;5062452;28;20110;-71
2023/11/07 04:16:05;;;;;;;8.10;1.80;;;;;;;3.44;100.00;100150.84;5067720;28;20055;-71
2023/11/07 04:18:49;;;;;;;3.17;1.48;;;;;;;3.43;100.00;100150.03;5082679;28;20112;-71
2023/11/07 04:21:35;;;;;;;7.57;2.13;;;;;;;3.41;100.00;100146.69;5066277;28;20451;-71
2023/11/07 04:24:21;;;;;;;7.15;2.20;;;;;;;3.41;100.00;100151.34;5077901;28;20098;-71
2023/11/07 04:27:07;;;;;;;7.00;2.28;;;;;;;3.38;100.00;100152.69;5048658;28;20090;-71
2023/11/07 04:29:51;;;;;;;5.30;2.08;;;;;;;3.38;100.00;100160.94;5079078;28;20043;-71
2023/11/07 04:32:35;;;;;;;3.33;1.40;;;;;;;3.38;100.00;100162.84;5083406;28;20047;-71
2023/11/07 04:35:19;;;;;;;6.47;2.38;;;;;;;3.39;100.00;100161.75;5076562;28;20047;-71
2023/11/07 04:38:04;;;;;;;5.18;1.83;;;;;;;3.37;100.00;100170.22;5081780;28;20047;-71
2023/11/07 04:40:48;;;;;;;6.68;1.80;;;;;;;3.36;100.00;100163.91;5081952;28;20157;-71
2023/11/07 04:43:35;;;;;;;3.88;1.90;;;;;;;3.34;100.00;100171.59;5076372;28;20051;-71
2023/11/07 04:46:19;;;;;;;6.93;2.35;;;;;;;3.34;100.00;100182.59;5082723;28;20047;-71
2023/11/07 04:49:06;;;;;;;5.88;2.03;;;;;;;3.33;100.00;100178.16;5062416;28;20039;-71
2023/11/07 04:51:51;;;;;;;3.35;1.80;;;;;;;3.29;100.00;100179.75;5073119;28;20112;-71
2023/11/07 04:54:35;;;;;;;5.85;1.90;;;;;;;3.29;100.00;100182.50;5062278;28;20101;-71
2023/11/07 04:57:20;;;;;;;4.90;1.83;;;;;;;3.29;100.00;100179.75;5075405;28;20039;-71
2023/11/07 05:00:07;;;;;;;4.72;1.88;;;;;;;3.29;100.00;100179.75;5054161;28;20503;-71
2023/11/07 05:02:51;;;;;;;4.53;1.90;;;;;;;3.27;100.00;100187.41;5076441;28;20085;-71
2023/11/07 05:05:35;;;;;;;6.05;1.92;;;;;;;3.27;100.00;100192.06;5059045;28;20039;-71
2023/11/07 05:08:20;;;;;;;5.15;1.60;;;;;;;3.26;100.00;100183.03;5069201;28;20035;-71
2023/11/07 05:11:05;;;;;;;6.55;1.70;;;;;;;3.25;100.00;100183.25;5061983;28;20849;-71
2023/11/07 05:13:49;;;;;;;4.15;1.60;;;;;;;3.24;100.00;100182.44;5075085;28;20059;-71
2023/11/07 05:16:35;;;;;;;3.42;1.55;;;;;;;3.25;100.00;100175.84;5047807;28;20101;-71
2023/11/07 05:19:20;;;;;;;7.50;1.65;;;;;;;3.18;100.00;100183.47;5076041;28;20125;-71
2023/11/07 05:22:05;;;;;;;8.40;1.83;;;;;;;3.17;100.00;100180.94;5062195;28;20044;-71
2023/11/07 05:24:51;;;;;;;5.53;1.80;;;;;;;3.19;100.00;100185.09;5061976;28;20090;-71
2023/11/07 05:27:35;;;;;;;6.88;2.38;;;;;;;3.13;100.00;100184.19;5053609;28;20400;-71
2023/11/07 05:30:19;;;;;;;5.70;1.88;;;;;;;3.16;100.00;100177.38;5083805;28;20124;-71
2023/11/07 05:33:03;;;;;;;6.18;1.90;;;;;;;3.13;100.00;100177.88;5065098;28;20074;-71
2023/11/07 05:35:47;;;;;;;4.65;1.58;;;;;;;3.13;100.00;100191.59;5054731;28;20031;-71
2023/11/07 05:38:31;;;;;;;4.25;1.48;;;;;;;3.09;100.00;100190.44;5047722;28;20154;-71
2023/11/07 05:41:18;;;;;;;4.32;1.70;;;;;;;3.08;100.00;100194.28;5061541;28;21309;-71
2023/11/07 05:44:02;;;;;;;3.78;1.50;;;;;;;3.04;100.00;100195.88;5072795;28;20035;-71
2023/11/07 05:46:46;;;;;;;4.65;1.77;;;;;;;3.05;100.00;100194.78;5071097;28;20035;-71
2023/11/07 05:49:30;;;;;;;5.60;1.83;;;;;;;3.07;100.00;100198.94;5051455;28;20055;-71
2023/11/07 05:52:15;;;;;;;4.78;1.55;;;;;;;3.07;100.00;100198.13;5071800;28;20048;-71
2023/11/07 05:55:06;;;;;;;7.32;2.35;;;;;;;3.04;100.00;100204.94;5064772;28;20051;-71
2023/11/07 05:57:52;;;;;;;9.38;1.80;;;;;;;3.04;100.00;100198.63;5079089;28;20044;-71
2023/11/07 06:00:36;;;;;;;5.63;1.90;;;;;;;3.01;100.00;100204.59;5080472;28;20036;-71
2023/11/07 06:03:20;;;;;;;3.90;1.70;;;;;;;3.03;100.00;100199.69;5065196;28;20174;-71
2023/11/07 06:06:04;;;;;;;7.13;1.70;;;;;;;2.98;100.00;100205.09;5093123;28;20081;-71
2023/11/07 06:08:48;;;;;;;3.47;1.88;;;;;;;2.99;100.00;100204.03;5068495;28;20038;-71
2023/11/07 06:11:33;;;;;;;6.55;1.77;;;;;;;3.01;100.00;100210.06;5064512;28;20038;-71
2023/11/07 06:14:18;;;;;;;5.13;1.65;;;;;;;2.95;100.00;100209.16;5054104;28;20563;-71
2023/11/07 06:17:02;;;;;;;3.28;1.63;;;;;;;2.98;100.00;100210.56;5069706;28;20035;-71
2023/11/07 06:19:47;;;;;;;6.22;1.95;;;;;;;2.98;100.00;100211.44;5079533;28;20079;-71
2023/11/07 06:22:31;;;;;;;2.10;1.30;;;;;;;2.98;100.00;100214.19;5089137;28;20709;-71
2023/11/07 06:25:16;;;;;;;5.57;1.90;;;;;;;2.97;100.00;100211.66;5069687;28;20129;-71
2023/11/07 06:28:00;;;;;;;7.30;1.67;;;;;;;2.95;100.00;100209.16;5084368;28;20048;-71
2023/11/07 06:30:44;;;;;;;4.80;1.45;;;;;;;2.97;100.00;100214.41;5069957;28;20499;-71
2023/11/07 06:33:28;;;;;;;5.18;1.60;;;;;;;2.96;100.00;100223.72;5066081;28;20130;-71
2023/11/07 06:36:12;;;;;;;5.30;1.40;;;;;;;2.95;100.00;100220.13;5092100;28;20382;-71
2023/11/07 06:38:56;;;;;;;5.18;1.70;;;;;;;2.92;100.00;100226.13;5071321;28;20093;-71
2023/11/07 06:41:40;;;;;;;3.85;1.60;;;;;;;2.87;100.00;100232.38;5078411;28;20067;-71
2023/11/07 06:44:25;;;;;;;3.40;1.50;;;;;;;2.83;100.00;100233.94;5080012;28;20039;-71
2023/11/07 06:47:10;;;;;;;5.70;1.92;;;;;;;2.82;100.00;100228.72;5087894;28;20075;-71
2023/11/07 06:49:54;;;;;;;6.38;2.05;;;;;;;2.83;100.00;100242.19;5071941;28;20089;-71
2023/11/07 06:52:41;;;;;;;4.47;1.70;;;;;;;2.85;100.00;100237.28;5067797;28;20066;-71
2023/11/07 06:55:25;;;;;;;3.90;1.73;;;;;;;2.82;100.00;100246.00;5056551;28;20047;-71
2023/11/07 06:58:10;;;;;;;6.45;1.98;;;;;;;2.79;100.00;100238.28;5064156;28;20050;-71
2023/11/07 07:00:54;;;;;;;4.72;1.83;;;;;;;2.80;100.00;100242.69;5067532;28;20066;-71
2023/11/07 07:03:39;;;;;;;7.25;1.70;;;;;;;2.78;100.00;100250.31;5083891;28;20043;-71
2023/11/07 07:06:23;;;;;;;4.93;1.65;;;;;;;2.76;100.00;100257.13;5094724;28;20118;-71
2023/11/07 07:09:08;;;;;;;4.32;1.50;;;;;;;2.79;100.00;100262.97;5084143;28;20084;-71
2023/11/07 07:11:53;;;;;;;4.75;1.67;;;;;;;2.76;100.00;100259.88;5066220;28;20174;-71
2023/11/07 07:14:38;;;;;;;4.45;1.55;;;;;;;2.78;100.00;100264.03;5098309;28;20449;-71
2023/11/07 07:17:22;;;;;;;5.50;1.80;;;;;;;2.78;100.00;100266.78;5078140;28;20039;-71
2023/11/07 07:20:13;;;;;;;5.65;1.70;;;;;;;2.78;100.00;100274.16;5063680;28;20043;-71
2023/11/07 07:22:57;;;;;;;4.95;1.58;;;;;;;2.82;100.00;100270.69;5077676;28;20054;-71
2023/11/07 07:25:43;;;;;;;6.32;2.35;;;;;;;2.82;100.00;100267.13;5078916;28;20109;-71
2023/11/07 07:28:28;;;;;;;5.85;1.70;;;;;;;2.84;100.00;100271.28;5077520;28;20532;-71
2023/11/07 07:31:16;;;;;;;7.75;1.65;;;;;;;2.84;100.00;100276.78;5063709;28;20075;-71
2023/11/07 07:34:00;;;;;;;5.30;1.63;;;;;;;2.90;100.00;100277.69;5077597;28;20043;-71
2023/11/07 07:36:44;;;;;;;3.60;1.42;;;;;;;2.94;100.00;100278.84;5077380;28;20071;-71
2023/11/07 07:39:28;;;;;;;5.72;1.58;;;;;;;3.02;100.00;100294.88;5077363;28;20124;-71
2023/11/07 07:42:12;;;;;;;6.32;1.98;;;;;;;3.08;100.00;100301.28;5077062;28;20393;-71
2023/11/07 07:44:57;;;;;;;6.05;1.45;;;;;;;3.14;100.00;100305.78;5097082;28;20047;-71
2023/11/07 07:47:41;;;;;;;7.05;1.95;;;;;;;3.21;100.00;100309.19;5083725;28;20550;-71
2023/11/07 07:50:25;;;;;;;11.13;2.20;;;;;;;3.29;100.00;100310.69;5077526;28;20085;-71
2023/11/07 07:53:10;;;;;;;4.65;1.90;;;;;;;3.38;100.00;100314.66;5070292;28;20054;-71
2023/11/07 07:55:55;;;;;;;6.43;2.00;;;;;;;3.48;100.00;100319.47;5079146;28;20075;-71
2023/11/07 07:58:41;;;;;;;7.78;1.65;;;;;;;3.61;100.00;100318.28;5063281;28;20499;-71
2023/11/07 08:01:25;;;;;;;9.82;2.50;;;;;;;3.70;100.00;100317.59;5087291;28;20043;-71
2023/11/07 08:04:09;;;;;;;7.88;1.80;;;;;;;3.87;100.00;100333.19;5068054;28;20119;-71
2023/11/07 08:06:53;;;;;;;9.30;1.88;;;;;;;3.94;100.00;100331.94;5076665;28;20549;-71
2023/11/07 08:09:40;;;;;;;7.65;2.22;;;;;;;4.06;100.00;100340.03;5058368;28;20126;-71
2023/11/07 08:12:25;;;;;;;5.72;2.10;;;;;;;4.19;100.00;100347.09;5096322;28;20105;-71
2023/11/07 08:15:10;;;;;;;6.70;2.03;;;;;;;4.30;100.00;100345.31;5097972;28;20043;-71
2023/11/07 08:17:54;;;;;;;4.75;1.73;;;;;;;4.46;100.00;100353.47;5068625;28;20072;-71
2023/11/07 08:20:38;;;;;;;6.88;2.15;;;;;;;4.59;100.00;100354.16;5082779;28;20035;-71
2023/11/07 08:23:22;;;;;;;8.25;2.25;;;;;;;4.70;100.00;100351.25;5097045;28;20047;-71
2023/11/07 08:26:06;;;;;;;7.45;2.70;;;;;;;4.83;100.00;100358.25;5076570;28;20074;-71
2023/11/07 08:28:51;;;;;;;7.95;2.20;;;;;;;4.97;100.00;100350.44;5076461;28;20094;-71
2023/11/07 08:31:35;;;;;;;5.00;2.10;;;;;;;5.11;100.00;100353.56;5066635;28;20046;-71
2023/11/07 08:34:22;;;;;;;6.45;1.90;;;;;;;5.23;100.00;100364.41;5067696;28;20043;-71
2023/11/07 08:37:06;;;;;;;7.68;2.10;;;;;;;5.38;100.00;100373.66;5062940;28;20112;-71
2023/11/07 08:39:50;;;;;;;6.25;1.83;;;;;;;5.52;100.00;100373.19;5084439;28;20108;-71
2023/11/07 08:42:35;;;;;;;5.03;1.70;;;;;;;5.66;100.00;100371.66;5082611;28;20090;-72
2023/11/07 08:45:20;;;;;;;5.70;2.67;;;;;;;5.82;100.00;100372.56;5062375;28;20086;-71
2023/11/07 08:48:06;;;;;;;10.00;2.15;;;;;;;5.95;100.00;100374.88;5089573;28;20039;-71
2023/11/07 08:50:51;;;;;;;9.88;2.58;;;;;;;6.12;100.00;100379.38;5079439;28;20070;-71
2023/11/07 08:53:35;;;;;;;10.73;2.83;;;;;;;6.28;100.00;100385.81;5097539;28;20039;-71
2023/11/07 08:56:24;;;;;;;12.82;3.00;;;;;;;6.41;100.00;100382.59;5063004;28;20039;-72
2023/11/07 08:59:08;;;;;;;8.35;2.63;;;;;;;6.57;100.00;100377.94;5063843;28;20092;-71
2023/11/07 09:01:55;;;;;;;8.73;3.20;;;;;;;6.72;100.00;100376.06;5096718;28;20098;-72
2023/11/07 09:04:39;;;;;;;9.45;2.53;;;;;;;6.86;100.00;100370.84;5086361;28;20074;-72
2023/11/07 09:07:23;;;;;;;5.90;2.10;;;;;;;7.03;100.00;100380.81;5066703;28;20046;-72
2023/11/07 09:10:07;;;;;;;10.65;2.40;;;;;;;7.18;100.00;100382.75;5082082;28;20128;-71
2023/11/07 09:12:51;;;;;;;7.78;2.40;;;;;;;7.32;100.00;100389.41;5076687;28;20058;-71
2023/11/07 09:15:36;;;;;;;11.60;2.75;;;;;;;7.46;100.00;100382.22;5062019;28;20064;-72
2023/11/07 09:18:20;;;;;;;12.65;3.30;;;;;;;7.61;100.00;100392.47;5063977;28;20032;-72
2023/11/07 09:21:04;;;;;;;11.00;2.97;;;;;;;7.76;100.00;100397.97;5080000;28;20129;-72
2023/11/07 09:23:50;;;;;;;8.93;2.75;;;;;;;7.90;100.00;100397.41;5080474;28;20499;-72
2023/11/07 09:26:34;;;;;;;10.20;2.70;;;;;;;8.03;100.00;100397.66;5080711;28;20043;-72
2023/11/07 09:29:18;;;;;;;15.13;3.15;;;;;;;8.16;100.00;100390.72;5080015;28;20044;-72
2023/11/07 09:32:03;;;;;;;13.93;2.88;;;;;;;8.30;100.00;100399.22;5088214;28;20093;-72
2023/11/07 09:34:47;;;;;;;11.93;2.97;;;;;;;8.45;100.00;100393.69;5068569;28;20181;-72
2023/11/07 09:37:31;;;;;;;18.52;2.78;;;;;;;8.59;100.00;100391.13;5080903;28;20086;-72
2023/11/07 09:40:19;;;;;;;11.00;3.20;;;;;;;8.71;100.00;100390.78;5090283;28;20497;-72
2023/11/07 09:43:05;;;;;;;12.30;2.90;;;;;;;8.88;100.00;100398.72;5085921;28;20132;-72
2023/11/07 09:45:49;;;;;;;11.05;2.58;;;;;;;9.01;100.00;100400.88;5099812;28;20038;-72
2023/11/07 09:48:33;;;;;;;13.40;3.03;;;;;;;9.14;100.00;100399.44;5057021;28;20131;-72
2023/11/07 09:51:17;;;;;;;10.55;2.80;;;;;;;9.26;100.00;100402.66;5085145;28;20043;-72
2023/11/07 09:54:01;;;;;;;14.48;2.90;;;;;;;9.38;100.00;100410.59;5080860;28;20110;-72
2023/11/07 09:56:46;;;;;;;11.75;2.70;;;;;;;9.50;100.00;100402.75;5088308;28;20388;-72
2023/11/07 09:59:39;;;;;;;11.60;2.65;;;;;;;9.62;100.00;100408.75;5087481;28;20047;-72
2023/11/07 10:02:23;;;;;;;10.93;3.58;;;;;;;9.77;100.00;100412.50;5081845;28;20178;-72
2023/11/07 10:05:09;;;;;;;11.48;2.85;;;;;;;9.89;100.00;100407.41;5065348;28;20039;-72
2023/11/07 10:07:57;;;;;;;11.02;2.65;;;;;;;10.00;100.00;100411.75;5089887;28;20040;-72
2023/11/07 10:10:42;;;;;;;11.05;2.53;;;;;;;10.12;100.00;100408.56;5079046;28;20052;-72
2023/11/07 10:13:26;;;;;;;17.42;3.20;;;;;;;10.23;100.00;100409.28;5076022;28;20114;-72
2023/11/07 10:16:10;;;;;;;11.23;2.50;;;;;;;10.36;100.00;100414.16;5088414;28;20043;-72
2023/11/07 10:18:54;;;;;;;10.90;2.35;;;;;;;10.48;100.00;100422.91;5067273;28;20055;-72
2023/11/07 10:21:38;;;;;;;11.52;2.63;;;;;;;10.60;100.00;100427.22;5077232;28;20043;-72
2023/11/07 10:24:22;;;;;;;10.15;2.22;;;;;;;10.68;100.00;100424.59;5088295;28;20043;-72
2023/11/07 10:27:06;;;;;;;9.45;2.58;;;;;;;10.80;100.00;100423.34;5087983;28;20074;-72
2023/11/07 10:29:51;;;;;;;8.55;1.67;;;;;;;10.88;100.00;100426.28;5068279;28;20511;-72
2023/11/07 10:32:45;;;;;;;12.15;2.50;;;;;;;10.89;100.00;100430.75;5071679;28;20043;-72
2023/11/07 10:35:30;;;;;;;10.43;2.15;;;;;;;11.05;100.00;100427.72;5069503;28;20036;-72
2023/11/07 10:38:15;;;;;;;9.50;1.77;;;;;;;11.16;100.00;100440.34;5092321;28;20039;-72
2023/11/07 10:41:01;;;;;;;8.93;2.20;;;;;;;11.28;100.00;100424.06;5079401;28;20043;-72
2023/11/07 10:43:45;;;;;;;13.77;2.20;;;;;;;11.41;100.00;100425.25;5089202;28;20062;-72
2023/11/07 10:46:30;;;;;;;10.02;1.85;;;;;;;11.50;100.00;100428.19;5084223;28;20054;-72
2023/11/07 10:49:14;;;;;;;12.52;2.17;;;;;;;11.58;100.00;100428.31;5096466;28;20594;-72
2023/11/07 10:51:57;;;;;;;11.73;2.05;;;;;;;11.66;100.00;100417.63;5069923;28;20070;-72
2023/11/07 10:54:42;;;;;;;12.75;1.95;;;;;;;11.74;100.00;100426.13;5065735;28;20075;-72
2023/11/07 10:57:28;;;;;;;10.40;1.83;;;;;;;11.83;100.00;100429.84;5092778;28;20043;-72
2023/11/07 11:00:13;;;;;;;12.25;1.95;;;;;;;11.92;100.00;100426.41;5079497;28;20039;-72
2023/11/07 11:02:57;;;;;;;11.68;1.80;;;;;;;11.97;100.00;100429.09;5064313;28;20035;-72
2023/11/07 11:05:41;;;;;;;14.00;2.75;;;;;;;12.06;100.00;100438.38;5073042;28;20054;-72
2023/11/07 11:08:25;;;;;;;13.88;1.65;;;;;;;12.17;100.00;100427.91;5069359;28;20051;-72
2023/11/07 11:11:13;;;;;;;10.02;1.70;;;;;;;12.24;100.00;100431.94;5076004;28;20123;-72
2023/11/07 11:13:58;;;;;;;14.02;2.00;;;;;;;12.32;100.00;100435.16;5076386;28;20052;-72
2023/11/07 11:16:43;;;;;;;10.00;2.35;;;;;;;12.36;100.00;100431.44;5078771;28;20057;-72
2023/11/07 11:19:42;;;;;;;8.63;1.60;;;;;;;12.42;100.00;100432.97;5098336;28;20035;-72
2023/11/07 11:22:41;;;;;;;12.20;2.08;;;;;;;12.52;100.00;100429.19;5085296;28;20404;-73
2023/11/07 11:25:40;;;;;;;9.80;2.08;;;;;;;12.61;100.00;100426.50;5072237;28;20553;-71
2023/11/07 11:28:43;;;;;;;11.38;2.17;;;;;;;12.69;100.00;100423.81;5097563;28;20039;-73
2023/11/07 11:31:28;;;;;;;11.18;2.33;;;;;;;12.80;100.00;100418.84;5098977;28;20140;-73
2023/11/07 11:34:31;;;;;;;7.90;1.70;;;;;;;12.88;100.00;100411.72;5097881;28;20535;-73
2023/11/07 11:37:16;;;;;;;9.27;1.67;;;;;;;12.98;100.00;100414.28;5086261;28;20039;-73
2023/11/07 11:40:00;;;;;;;9.48;1.90;;;;;;;13.39;100.00;100408.63;5088455;28;20495;-73
2023/11/07 11:43:02;;;;;;;10.05;1.75;;;;;;;14.28;100.00;100414.44;5087812;28;20069;-73
2023/11/07 11:45:48;;;;;;;12.45;2.08;;;;;;;14.71;100.00;100403.50;5089067;28;20042;-73
2023/11/07 11:48:49;;;;;;;6.25;1.40;;;;;;;15.01;100.00;100400.09;5096386;28;20511;-73
2023/11/07 11:51:40;;;;;;;12.02;2.08;;;;;;;15.32;100.00;100394.34;5085715;28;20054;-73
2023/11/07 11:54:24;;;;;;;8.80;1.58;;;;;;;15.42;100.00;100394.84;5097762;28;20039;-73
2023/11/07 11:57:10;;;;;;;8.43;1.60;;;;;;;15.56;100.00;100393.88;5096733;28;20129;-73
2023/11/07 11:59:55;;;;;;;10.32;1.30;;;;;;;15.41;100.00;100390.41;5088300;28;20061;-73
2023/11/07 12:02:40;;;;;;;10.18;1.67;;;;;;;15.32;100.00;100392.41;5098209;28;20119;-73
2023/11/07 12:05:24;;;;;;;7.50;1.30;;;;;;;14.72;100.00;100388.34;5095967;28;20043;-73
2023/11/07 12:08:34;;;;;;;9.98;1.50;;;;;;;14.37;100.00;100392.16;5088027;28;20129;-73
2023/11/07 12:11:19;;;;;;;12.55;1.85;;;;;;;14.15;100.00;100384.66;5088707;28;20035;-74
2023/11/07 12:14:03;;;;;;;6.15;1.50;;;;;;;14.03;100.00;100386.06;5097234;28;20059;-73
2023/11/07 12:16:57;;;;;;;5.93;1.10;;;;;;;13.90;100.00;100384.22;5084827;28;21686;-73
2023/11/07 12:19:43;;;;;;;9.65;1.40;;;;;;;13.85;100.00;100375.97;5098000;28;20039;-73
2023/11/07 12:22:28;;;;;;;7.78;1.27;;;;;;;13.79;100.00;100371.63;5087345;28;20139;-73
2023/11/07 12:25:17;;;;;;;10.60;1.55;;;;;;;13.71;100.00;100369.66;5097640;28;20067;-73
2023/11/07 12:28:03;;;;;;;7.13;1.55;;;;;;;13.63;100.00;100363.66;5082300;28;20094;-73
2023/11/07 12:30:54;;;;;;;7.82;1.20;;;;;;;13.60;100.00;100358.72;5077156;28;20044;-73
2023/11/07 12:33:40;;;;;;;6.95;1.60;;;;;;;13.60;100.00;100364.31;5085299;28;20530;-73
2023/11/07 12:36:24;;;;;;;7.85;1.45;;;;;;;13.55;100.00;100361.66;5097782;28;20085;-73
2023/11/07 12:39:08;;;;;;;8.77;1.27;;;;;;;13.54;100.00;100359.16;5097810;28;20573;-73
2023/11/07 12:41:52;;;;;;;8.05;1.02;;;;;;;13.48;100.00;100358.47;5088672;28;20527;-72
2023/11/07 12:44:37;;;;;;;11.48;1.60;;;;;;;13.47;100.00;100358.81;5077687;28;20045;-72